<?xml version='1.0' encoding='UTF-8'?>
<gpx xmlns="http://www.topografix.com/GPX/1/1" creator="www.balnam.be" version="1.1" xmlns:xsi="http://www.w3.org/2001/XMLSchema-instance" xsi:schemaLocation="http://www.topografix.com/GPX/1/1 http://www.topografix.com/GPX/1/1/gpx.xsd">
<trk>
<name>lsoso2</name>
<cmt>v</cmt>
<desc>Stoumont Chemin n°2 Monthouet</desc>
<link href="https://chemins.be/stoumont/chemin/2"/><trkseg>
<trkpt lat="50.412414" lon="5.811049"><time>2026-05-02T19:01:30Z</time></trkpt>
<trkpt lat="50.413664" lon="5.810062"><time>2026-05-02T19:11:30Z</time></trkpt>
</trkseg></trk>
<trk>
<name>lsoso2</name>
<cmt>s</cmt>
<desc>Stoumont Chemin n°2 Monthouet</desc>
<link href="https://chemins.be/stoumont/chemin/2"/><trkseg>
<trkpt lat="50.413664" lon="5.810062"><time>2026-05-02T19:11:30Z</time></trkpt>
<trkpt lat="50.414049" lon="5.809539"><time>2026-05-02T19:21:30Z</time></trkpt>
</trkseg></trk>
<trk>
<name>lsoso2</name>
<cmt>v</cmt>
<desc>Stoumont Chemin n°2 Monthouet</desc>
<link href="https://chemins.be/stoumont/chemin/2"/><trkseg>
<trkpt lat="50.414049" lon="5.809539"><time>2026-05-02T19:21:30Z</time></trkpt>
<trkpt lat="50.414698" lon="5.809482"><time>2026-05-02T19:31:30Z</time></trkpt>
<trkpt lat="50.415873" lon="5.810716"><time>2026-05-02T19:41:30Z</time></trkpt>
<trkpt lat="50.417357" lon="5.812036"><time>2026-05-02T19:51:30Z</time></trkpt>
<trkpt lat="50.417887" lon="5.811929"><time>2026-05-02T20:01:30Z</time></trkpt>
<trkpt lat="50.418248" lon="5.811827"><time>2026-05-02T20:11:30Z</time></trkpt>
<trkpt lat="50.419104" lon="5.811656"><time>2026-05-02T20:21:30Z</time></trkpt>
<trkpt lat="50.419455" lon="5.811611"><time>2026-05-02T20:31:30Z</time></trkpt>
<trkpt lat="50.419626" lon="5.811644"><time>2026-05-02T20:41:30Z</time></trkpt>
<trkpt lat="50.420072" lon="5.811957"><time>2026-05-02T20:51:30Z</time></trkpt>
</trkseg></trk>
<trk>
<name>lsoso2</name>
<cmt>r</cmt>
<desc>Stoumont Chemin n°2 Monthouet</desc>
<link href="https://chemins.be/stoumont/chemin/2"/><trkseg>
<trkpt lat="50.420072" lon="5.811957"><time>2026-05-02T20:51:30Z</time></trkpt>
<trkpt lat="50.420386" lon="5.812078"><time>2026-05-02T21:01:30Z</time></trkpt>
<trkpt lat="50.421029" lon="5.811477"><time>2026-05-02T21:11:30Z</time></trkpt>
<trkpt lat="50.421231" lon="5.810194"><time>2026-05-02T21:21:30Z</time></trkpt>
<trkpt lat="50.421704" lon="5.809324"><time>2026-05-02T21:31:30Z</time></trkpt>
<trkpt lat="50.421830" lon="5.808817"><time>2026-05-02T21:41:30Z</time></trkpt>
<trkpt lat="50.421528" lon="5.807845"><time>2026-05-02T21:51:30Z</time></trkpt>
<trkpt lat="50.421724" lon="5.807348"><time>2026-05-02T22:01:30Z</time></trkpt>
<trkpt lat="50.422016" lon="5.807169"><time>2026-05-02T22:11:30Z</time></trkpt>
<trkpt lat="50.422803" lon="5.805847"><time>2026-05-02T22:21:30Z</time></trkpt>
</trkseg></trk>
<trk>
<name>lsoso2</name>
<cmt>v</cmt>
<desc>Stoumont Chemin n°2 Monthouet</desc>
<link href="https://chemins.be/stoumont/chemin/2"/><trkseg>
<trkpt lat="50.422803" lon="5.805847"><time>2026-05-02T22:21:30Z</time></trkpt>
<trkpt lat="50.424817" lon="5.805105"><time>2026-05-02T22:31:30Z</time></trkpt>
</trkseg></trk>
<trk>
<name>lsoso2</name>
<cmt>d</cmt>
<desc>Stoumont Chemin n°2 Monthouet</desc>
<link href="https://chemins.be/stoumont/chemin/2"/><trkseg>
<trkpt lat="50.424817" lon="5.805105"><time>2026-05-02T22:31:30Z</time></trkpt>
<trkpt lat="50.426675" lon="5.804163"><time>2026-05-02T22:41:30Z</time></trkpt>
<trkpt lat="50.430666" lon="5.798670"><time>2026-05-02T22:51:30Z</time></trkpt>
<trkpt lat="50.432285" lon="5.797198"><time>2026-05-02T23:01:30Z</time></trkpt>
<trkpt lat="50.433640" lon="5.796610"><time>2026-05-02T23:11:30Z</time></trkpt>
<trkpt lat="50.435598" lon="5.795580"><time>2026-05-02T23:21:30Z</time></trkpt>
</trkseg>
</trk>
</gpx>